Time;durP1;ratioP1;P1;durP2;ratioP2;P2;SDS_P1;SDS_P2;PMS_P1;PMS_P2;Temp;Humidity;BMP_temperature;BMP_pressure;BME280_temperature;BME280_humidity;BME280_pressure;Samples;Min_cycle;Max_cycle;Signal;HPM_P1;HPM_P2
2021/08/28 00:00:51;;;;;;;14.32;2.63;;;;;;;17.68;61.67;101604.41;5053303;28;20389;-65
2021/08/28 00:03:19;;;;;;;10.75;2.40;;;;;;;17.47;62.20;101606.38;5054499;28;20049;-65
2021/08/28 00:05:48;;;;;;;21.20;2.85;;;;;;;17.22;63.10;101600.94;5053098;28;20400;-63
2021/08/28 00:08:16;;;;;;;14.00;2.78;;;;;;;17.44;63.21;101607.03;5054298;28;20045;-63
2021/08/28 00:10:43;;;;;;;13.75;2.38;;;;;;;17.16;64.64;101610.63;5053153;28;20056;-63
2021/08/28 00:13:12;;;;;;;10.75;2.97;;;;;;;17.11;65.06;101611.66;5045006;28;20052;-65
2021/08/28 00:15:40;;;;;;;10.20;2.22;;;;;;;17.36;64.49;101604.31;5033196;28;20493;-65
2021/08/28 00:18:07;;;;;;;19.77;3.13;;;;;;;17.59;63.27;101605.66;5016422;28;20369;-65
2021/08/28 00:20:35;;;;;;;12.75;3.00;;;;;;;17.69;63.34;101603.28;5034207;28;20049;-64
2021/08/28 00:23:04;;;;;;;13.77;3.15;;;;;;;17.36;63.42;101607.09;5034753;28;20049;-64
2021/08/28 00:25:32;;;;;;;12.88;2.80;;;;;;;17.31;64.70;101608.06;5034749;28;20053;-63
2021/08/28 00:27:59;;;;;;;12.38;2.25;;;;;;;17.38;64.44;101602.78;5034014;28;20046;-63
2021/08/28 00:30:27;;;;;;;13.85;3.35;;;;;;;17.16;65.34;101605.06;5032883;28;20433;-63
2021/08/28 00:32:54;;;;;;;15.57;2.97;;;;;;;16.55;67.94;101607.28;5032159;28;20064;-63
2021/08/28 00:35:21;;;;;;;14.25;2.88;;;;;;;16.84;66.84;101606.56;5032653;28;20045;-64
2021/08/28 00:37:49;;;;;;;14.18;2.53;;;;;;;16.43;68.82;101609.91;5015967;28;20054;-63
2021/08/28 00:40:16;;;;;;;21.33;3.25;;;;;;;16.61;68.54;101605.16;5034419;28;20053;-63
2021/08/28 00:42:53;;;;;;;11.98;3.15;;;;;;;16.65;67.63;101611.66;5032687;28;20061;-63
2021/08/28 00:45:25;;;;;;;14.88;3.05;;;;;;;16.66;67.99;101621.66;5032587;28;20084;-64
2021/08/28 00:47:56;;;;;;;11.70;3.33;;;;;;;16.65;68.75;101611.66;5033515;28;20061;-63
2021/08/28 00:50:24;;;;;;;18.50;2.47;;;;;;;16.88;67.63;101609.47;5032118;28;20050;-64
2021/08/28 00:52:52;;;;;;;14.68;3.15;;;;;;;16.45;69.18;101610.41;5033942;28;20060;-64
2021/08/28 00:55:22;;;;;;;11.85;2.25;;;;;;;16.49;69.50;101610.59;5032446;28;20064;-65
2021/08/28 00:57:49;;;;;;;19.65;3.47;;;;;;;16.44;69.68;101602.41;5032428;28;20528;-65
2021/08/28 01:00:18;;;;;;;16.25;2.72;;;;;;;16.88;68.37;101601.94;5031882;28;20072;-65
2021/08/28 01:02:47;;;;;;;12.32;2.80;;;;;;;16.59;68.72;101607.44;5015836;28;20068;-65
2021/08/28 01:05:18;;;;;;;18.20;3.40;;;;;;;16.70;69.20;101597.59;5031827;28;20053;-65
2021/08/28 01:08:11;;;;;;;17.52;3.08;;;;;;;17.11;67.52;101605.25;5032106;28;20057;-64
2021/08/28 01:11:04;;;;;;;12.27;2.88;;;;;;;17.24;66.98;101607.81;5032181;28;20060;-64
2021/08/28 01:13:40;;;;;;;16.80;2.70;;;;;;;16.92;67.54;101593.72;5028077;28;20052;-64
2021/08/28 01:16:10;;;;;;;14.52;3.08;;;;;;;16.48;68.89;101595.03;5035643;28;20048;-63
2021/08/28 01:18:39;;;;;;;14.23;3.00;;;;;;;16.43;70.18;101595.19;5035243;28;20056;-64
2021/08/28 01:21:18;;;;;;;15.98;2.97;;;;;;;16.80;69.28;101592.50;5051920;28;20539;-63
2021/08/28 01:24:15;;;;;;;10.68;2.85;;;;;;;16.73;68.78;101591.38;5037996;28;20542;-65
2021/08/28 01:27:36;;;;;;;19.75;3.22;;;;;;;16.18;70.73;101604.41;5051864;28;20049;-63
2021/08/28 01:30:06;;;;;;;12.88;3.03;;;;;;;16.12;71.51;101603.78;5003325;28;20060;-66
2021/08/28 01:32:34;;;;;;;17.98;3.00;;;;;;;16.24;71.71;101591.97;5034831;28;20476;-66
2021/08/28 01:35:02;;;;;;;14.43;2.97;;;;;;;16.45;70.88;101593.72;5035078;28;20052;-66
2021/08/28 01:37:32;;;;;;;15.35;2.50;;;;;;;16.45;70.96;101599.28;5034737;28;20049;-65
2021/08/28 01:40:08;;;;;;;14.75;2.70;;;;;;;16.52;70.45;101590.47;5053017;28;20083;-66
2021/08/28 01:42:44;;;;;;;18.50;2.92;;;;;;;16.59;70.20;101591.59;5034841;28;20507;-65
2021/08/28 01:45:13;;;;;;;14.88;3.10;;;;;;;16.67;69.91;101589.91;5035263;28;20052;-65
2021/08/28 01:47:45;;;;;;;12.57;2.67;;;;;;;16.83;68.66;101586.25;5036238;28;20108;-65
2021/08/28 01:50:16;;;;;;;16.10;3.17;;;;;;;16.79;69.68;101587.22;5051422;28;20139;-65
2021/08/28 01:52:44;;;;;;;14.88;2.95;;;;;;;16.78;68.54;101580.88;5051547;28;20056;-65
2021/08/28 01:55:11;;;;;;;16.55;3.00;;;;;;;16.96;68.59;101587.19;5035049;28;20041;-65
2021/08/28 01:57:50;;;;;;;15.15;3.22;;;;;;;16.60;68.88;101601.56;5051968;28;20049;-65
2021/08/28 02:00:46;;;;;;;15.32;3.45;;;;;;;16.35;70.94;101601.59;5042976;28;20057;-66
2021/08/28 02:03:30;;;;;;;15.05;2.90;;;;;;;16.63;70.35;101598.09;5055585;28;20056;-65
2021/08/28 02:06:03;;;;;;;10.27;2.80;;;;;;;17.13;68.29;101591.81;5055506;28;20057;-64
2021/08/28 02:08:48;;;;;;;16.83;2.97;;;;;;;16.48;70.13;101600.59;5055339;28;20063;-65
2021/08/28 02:11:21;;;;;;;16.15;3.10;;;;;;;16.39;70.98;101606.16;5055569;28;20459;-64
2021/08/28 02:14:16;;;;;;;17.92;3.17;;;;;;;15.96;72.75;101607.38;5042522;28;20050;-65
2021/08/28 02:16:44;;;;;;;18.52;3.15;;;;;;;15.55;73.69;101608.66;5016974;28;20061;-65
2021/08/28 02:19:23;;;;;;;15.50;2.92;;;;;;;15.45;74.53;101606.19;5018686;28;20060;-64
2021/08/28 02:22:16;;;;;;;15.45;3.15;;;;;;;15.44;74.96;101606.53;5036678;28;20053;-64
2021/08/28 02:25:12;;;;;;;15.07;2.92;;;;;;;15.50;74.65;101608.81;5035181;28;20088;-64
2021/08/28 02:27:51;;;;;;;16.38;2.90;;;;;;;15.55;74.06;101608.66;5019485;28;20060;-65
2021/08/28 02:30:19;;;;;;;15.05;3.10;;;;;;;15.37;75.31;101608.94;5036321;28;20183;-66
2021/08/28 02:33:06;;;;;;;13.32;3.08;;;;;;;15.85;73.30;101619.97;5036896;28;20053;-66
2021/08/28 02:35:37;;;;;;;13.80;2.72;;;;;;;16.10;73.25;101610.78;5018837;28;20045;-64
2021/08/28 02:38:05;;;;;;;13.73;3.47;;;;;;;16.69;71.13;101613.47;5018775;28;20488;-65
2021/08/28 02:40:33;;;;;;;15.48;3.15;;;;;;;16.03;72.05;101611.28;5001654;28;20065;-65
2021/08/28 02:43:00;;;;;;;21.13;3.75;;;;;;;15.32;74.85;101617.41;5018631;28;20068;-66
2021/08/28 02:45:28;;;;;;;19.35;3.70;;;;;;;15.35;75.44;101617.59;5018477;28;20057;-64
2021/08/28 02:48:03;;;;;;;12.10;2.90;;;;;;;15.44;74.60;101610.13;5019398;28;20065;-64
2021/08/28 02:50:31;;;;;;;14.38;2.90;;;;;;;15.36;75.38;101621.19;5034394;28;20049;-67
2021/08/28 02:52:59;;;;;;;14.15;3.20;;;;;;;15.37;75.47;101609.75;5036284;28;20056;-65
2021/08/28 02:55:31;;;;;;;13.25;3.15;;;;;;;16.09;72.84;101615.53;5034737;28;20054;-66
2021/08/28 02:57:59;;;;;;;16.02;3.42;;;;;;;15.38;75.14;101616.09;5018517;28;20638;-65
2021/08/28 03:00:28;;;;;;;13.77;2.85;;;;;;;15.65;74.79;101602.81;5018067;28;20689;-64
2021/08/28 03:02:56;;;;;;;20.38;3.58;;;;;;;15.44;75.68;101612.09;5034626;28;20060;-64
2021/08/28 03:05:24;;;;;;;16.35;2.88;;;;;;;15.15;75.81;101620.16;5017960;28;20041;-64
2021/08/28 03:07:54;;;;;;;17.08;3.28;;;;;;;15.12;76.54;101606.91;5034407;28;20053;-63
2021/08/28 03:10:22;;;;;;;23.08;3.95;;;;;;;15.09;76.62;101607.56;5001259;28;20057;-64
2021/08/28 03:12:49;;;;;;;21.23;3.30;;;;;;;15.15;76.40;101611.84;5039070;28;20052;-66
2021/08/28 03:15:17;;;;;;;17.83;3.00;;;;;;;15.01;76.67;101603.59;5055710;28;20041;-66
2021/08/28 03:18:12;;;;;;;13.25;3.47;;;;;;;15.14;76.39;101607.41;5055250;28;20484;-66
2021/08/28 03:20:45;;;;;;;14.27;3.35;;;;;;;15.37;75.86;101603.38;5037836;28;20052;-66
2021/08/28 03:23:15;;;;;;;12.50;3.08;;;;;;;15.46;75.31;101607.81;5054047;28;20727;-66
2021/08/28 03:25:44;;;;;;;13.60;2.83;;;;;;;15.68;74.72;101609.66;5054172;28;20051;-65
2021/08/28 03:28:16;;;;;;;19.45;3.95;;;;;;;15.08;75.97;101611.47;5037453;28;20053;-66
2021/08/28 03:30:46;;;;;;;14.70;3.40;;;;;;;15.19;76.01;101608.06;5053946;28;20049;-64
2021/08/28 03:33:16;;;;;;;14.80;3.03;;;;;;;15.49;76.27;101604.41;5037517;28;20056;-64
2021/08/28 03:35:48;;;;;;;14.23;3.13;;;;;;;15.12;76.16;101607.72;5053619;28;20053;-66
2021/08/28 03:38:16;;;;;;;14.85;3.20;;;;;;;14.88;78.05;101607.31;5053752;28;20687;-66
2021/08/28 03:40:44;;;;;;;14.98;3.17;;;;;;;15.11;77.65;101608.06;5037259;28;20500;-66
2021/08/28 03:43:12;;;;;;;15.82;3.33;;;;;;;15.11;77.79;101605.28;5053713;28;20060;-64
2021/08/28 03:45:40;;;;;;;12.98;2.75;;;;;;;15.01;78.00;101602.81;5037537;28;20041;-64
2021/08/28 03:48:08;;;;;;;13.80;3.20;;;;;;;15.38;76.15;101603.06;5053710;28;20077;-63
2021/08/28 03:50:36;;;;;;;15.90;3.13;;;;;;;15.24;76.26;101604.31;5036836;28;20057;-64
2021/08/28 03:53:05;;;;;;;15.77;3.33;;;;;;;15.38;75.77;101594.72;5053604;28;20049;-63
2021/08/28 03:55:32;;;;;;;12.25;2.88;;;;;;;15.37;76.48;101600.59;5053644;28;20045;-63
2021/08/28 03:57:59;;;;;;;14.25;2.78;;;;;;;14.86;77.68;101606.81;5053595;28;20049;-63
2021/08/28 04:00:29;;;;;;;11.87;2.93;;;;;;;15.11;78.32;101603.34;5053054;28;20064;-65
2021/08/28 04:02:58;;;;;;;16.25;3.55;;;;;;;14.74;78.81;101608.56;5036743;28;20053;-64
2021/08/28 04:05:27;;;;;;;15.55;3.28;;;;;;;15.39;77.64;101593.59;5020591;28;20056;-64
2021/08/28 04:07:55;;;;;;;17.40;3.08;;;;;;;16.02;74.51;101604.13;5053377;28;20048;-64
2021/08/28 04:10:25;;;;;;;12.95;2.97;;;;;;;16.26;72.04;101604.41;5053157;28;20068;-65
2021/08/28 04:12:52;;;;;;;18.63;3.58;;;;;;;16.34;71.54;101611.06;5047905;28;20053;-66
2021/08/28 04:15:19;;;;;;;16.92;3.22;;;;;;;16.18;72.63;101605.22;5033466;28;20053;-68
2021/08/28 04:18:08;;;;;;;13.63;2.63;;;;;;;16.41;72.23;101595.53;5033874;28;20061;-66
2021/08/28 04:20:37;;;;;;;;;;;;;;;16.54;71.45;101604.84;5016603;28;20053;-65
2021/08/28 04:23:13;;;;;;;23.38;3.25;;;;;;;16.19;72.80;101603.25;5032935;28;19921;-65
2021/08/28 04:26:13;;;;;;;14.57;2.77;;;;;;;15.96;72.46;101607.38;5033914;28;20490;-64
2021/08/28 04:28:40;;;;;;;26.13;3.72;;;;;;;15.91;74.44;101607.53;5028489;28;20050;-63
2021/08/28 04:31:07;;;;;;;19.77;3.97;;;;;;;15.98;74.11;101605.06;5032701;28;20049;-65
2021/08/28 04:33:35;;;;;;;19.98;3.72;;;;;;;15.53;74.08;101604.59;5000040;28;20045;-63
2021/08/28 04:36:03;;;;;;;14.68;3.25;;;;;;;15.57;75.71;101603.59;5014212;28;20042;-64
2021/08/28 04:38:31;;;;;;;20.70;3.50;;;;;;;15.97;73.78;101606.25;4997153;28;20065;-63
2021/08/28 04:40:59;;;;;;;10.60;3.47;;;;;;;15.64;74.92;101609.50;5012860;28;20050;-65
2021/08/28 04:43:29;;;;;;;16.67;3.53;;;;;;;15.87;74.00;101612.94;5014458;28;20053;-65
2021/08/28 04:46:28;;;;;;;19.67;3.40;;;;;;;15.88;73.44;101614.56;5017609;28;20045;-65
2021/08/28 04:48:59;;;;;;;17.23;3.22;;;;;;;15.60;74.26;101614.06;5032470;28;20053;-64
2021/08/28 04:51:52;;;;;;;12.75;3.33;;;;;;;15.16;77.22;101611.50;5023756;28;20270;-63
2021/08/28 04:54:20;;;;;;;20.25;4.10;;;;;;;15.02;76.93;101612.75;5027801;28;20050;-64
2021/08/28 04:56:51;;;;;;;17.15;3.30;;;;;;;15.44;76.57;101614.84;5020888;28;20050;-66
2021/08/28 04:59:18;;;;;;;16.85;3.22;;;;;;;15.20;76.75;101615.25;5012461;28;20061;-65
2021/08/28 05:01:45;;;;;;;17.17;3.35;;;;;;;15.50;76.57;101622.69;5031234;28;20064;-64
2021/08/28 05:04:33;;;;;;;17.77;3.33;;;;;;;15.25;76.60;101625.41;5033055;28;20065;-64
2021/08/28 05:07:01;;;;;;;19.40;3.88;;;;;;;14.91;78.48;101616.94;5033702;28;20116;-64
2021/08/28 05:09:47;;;;;;;16.65;3.97;;;;;;;15.23;77.42;101614.63;5027809;28;20056;-65
2021/08/28 05:12:15;;;;;;;15.55;3.30;;;;;;;14.90;77.73;101623.66;4999062;28;20056;-67
2021/08/28 05:14:53;;;;;;;19.77;3.55;;;;;;;14.97;79.29;101619.28;5020120;28;20554;-66
2021/08/28 05:17:20;;;;;;;19.85;3.45;;;;;;;14.13;82.44;101626.78;4999429;28;20049;-66
2021/08/28 05:19:48;;;;;;;15.05;3.35;;;;;;;14.09;82.29;101623.00;5021149;28;20052;-66
2021/08/28 05:22:38;;;;;;;14.13;2.90;;;;;;;14.83;81.77;101624.13;4998239;28;20060;-65
2021/08/28 05:25:25;;;;;;;15.65;3.60;;;;;;;14.97;79.19;101627.59;5028048;28;20056;-65
2021/08/28 05:27:53;;;;;;;19.10;3.55;;;;;;;15.11;78.31;101617.22;5032155;28;20442;-65
2021/08/28 05:30:20;;;;;;;19.77;3.35;;;;;;;15.47;77.88;101626.13;5006755;28;20056;-65
2021/08/28 05:32:48;;;;;;;14.27;3.25;;;;;;;15.26;76.17;101625.06;5012418;28;20054;-66
2021/08/28 05:35:16;;;;;;;13.73;3.25;;;;;;;15.03;78.49;101625.50;5014364;28;20069;-65
2021/08/28 05:38:10;;;;;;;16.08;3.30;;;;;;;15.28;78.99;101627.53;5012150;28;20728;-65
2021/08/28 05:40:38;;;;;;;18.95;3.95;;;;;;;15.17;77.67;101624.22;5012000;28;20076;-65
2021/08/28 05:43:05;;;;;;;15.07;3.20;;;;;;;14.93;78.87;101631.31;5011990;28;20065;-66
2021/08/28 05:46:05;;;;;;;12.90;2.90;;;;;;;15.62;76.31;101630.41;5013350;28;20046;-65
2021/08/28 05:48:45;;;;;;;12.15;3.10;;;;;;;15.79;76.45;101628.44;5011866;28;20061;-65
2021/08/28 05:51:32;;;;;;;19.70;4.18;;;;;;;15.56;76.37;101629.75;5013133;28;20054;-65
2021/08/28 05:53:59;;;;;;;19.88;3.72;;;;;;;15.52;76.01;101625.97;5017088;28;20060;-63
2021/08/28 05:56:27;;;;;;;15.57;3.85;;;;;;;15.54;75.76;101626.47;5014192;28;20055;-63
2021/08/28 05:58:54;;;;;;;13.57;2.88;;;;;;;15.85;74.42;101631.88;5031338;28;20061;-65
2021/08/28 06:01:22;;;;;;;17.30;3.53;;;;;;;15.58;76.82;101626.66;5031346;28;20065;-66
2021/08/28 06:03:49;;;;;;;16.77;3.67;;;;;;;16.01;75.84;101627.47;5029867;28;20057;-63
2021/08/28 06:06:29;;;;;;;;;;;;;;;15.86;74.49;101618.81;5012240;28;20117;-63
2021/08/28 06:09:19;;;;;;;15.83;3.00;;;;;;;16.09;74.02;101625.84;5032867;28;20093;-63
2021/08/28 06:12:05;;;;;;;14.10;3.28;;;;;;;15.48;75.07;101633.31;5030733;28;20284;-63
2021/08/28 06:14:56;;;;;;;18.77;3.40;;;;;;;15.50;75.71;101633.81;5032913;28;20054;-63
2021/08/28 06:17:41;;;;;;;21.15;3.90;;;;;;;15.15;78.00;101631.25;5032018;28;20068;-65
2021/08/28 06:20:09;;;;;;;13.82;3.47;;;;;;;15.24;77.57;101634.84;5032641;28;20045;-64
2021/08/28 06:22:37;;;;;;;17.90;3.60;;;;;;;15.17;77.72;101642.81;5031468;28;20053;-63
2021/08/28 06:25:05;;;;;;;14.93;3.35;;;;;;;15.12;79.37;101635.47;5031401;28;20469;-64
2021/08/28 06:27:32;;;;;;;19.95;3.88;;;;;;;14.68;80.24;101644.75;5031544;28;20513;-63
2021/08/28 06:30:04;;;;;;;14.88;3.70;;;;;;;15.32;79.57;101634.91;5031562;28;20050;-64
2021/08/28 06:32:31;;;;;;;15.55;3.95;;;;;;;15.19;78.11;101652.47;5014732;28;20053;-63
2021/08/28 06:34:59;;;;;;;17.27;3.85;;;;;;;14.74;81.13;101636.28;5031105;28;20045;-65
2021/08/28 06:37:34;;;;;;;15.15;3.95;;;;;;;14.78;80.90;101643.69;5016349;28;20049;-64
2021/08/28 06:40:34;;;;;;;15.45;3.92;;;;;;;15.54;78.45;101645.91;5009492;28;20057;-63
2021/08/28 06:43:39;;;;;;;11.68;3.10;;;;;;;16.03;75.83;101644.63;5020765;28;20589;-64
2021/08/28 06:46:27;;;;;;;15.52;3.55;;;;;;;16.51;73.85;101641.69;5034567;28;20049;-64
2021/08/28 06:49:13;;;;;;;18.63;3.85;;;;;;;16.80;72.06;101647.31;5036583;28;20076;-64
2021/08/28 06:51:59;;;;;;;14.90;3.85;;;;;;;16.08;73.94;101647.25;5034936;28;20076;-64
2021/08/28 06:54:45;;;;;;;18.85;3.97;;;;;;;16.28;74.65;101640.22;5035034;28;20057;-66
2021/08/28 06:57:35;;;;;;;;;;;;;;;16.27;74.49;101650.50;5035806;28;20060;-66
2021/08/28 07:00:20;;;;;;;17.95;3.53;;;;;;;16.17;74.41;101650.03;5020774;28;19932;-66
2021/08/28 07:03:30;;;;;;;22.10;4.63;;;;;;;16.00;74.73;101642.53;5033385;28;20068;-66
2021/08/28 07:05:59;;;;;;;22.17;4.35;;;;;;;16.43;74.44;101642.47;5033062;28;20049;-65
2021/08/28 07:08:28;;;;;;;16.08;3.22;;;;;;;16.65;72.92;101637.53;5034712;28;20079;-63
2021/08/28 07:10:56;;;;;;;19.98;4.97;;;;;;;16.19;74.11;101648.56;5034637;28;20049;-66
2021/08/28 07:13:23;;;;;;;24.30;4.15;;;;;;;15.74;76.07;101661.16;5044010;28;20071;-66
2021/08/28 07:15:53;;;;;;;23.25;4.22;;;;;;;15.56;77.52;101651.13;5038164;28;20052;-65
2021/08/28 07:18:20;;;;;;;20.80;3.78;;;;;;;15.73;77.77;101645.59;5054265;28;20394;-65
2021/08/28 07:20:55;;;;;;;17.35;4.10;;;;;;;15.39;78.64;101649.13;5053977;28;20048;-66
2021/08/28 07:23:26;;;;;;;15.52;3.50;;;;;;;15.93;77.18;101658.88;5038244;28;20052;-65
2021/08/28 07:25:58;;;;;;;22.75;4.38;;;;;;;16.53;74.24;101648.53;5038485;28;20064;-68
2021/08/28 07:28:27;;;;;;;18.55;3.95;;;;;;;16.99;72.22;101653.31;5054069;28;20041;-65
2021/08/28 07:31:05;;;;;;;18.13;4.03;;;;;;;16.47;73.64;101655.44;5055281;28;20477;-66
2021/08/28 07:33:36;;;;;;;15.25;4.05;;;;;;;16.55;74.03;101662.09;5053924;28;20049;-66
2021/08/28 07:36:04;;;;;;;16.88;4.35;;;;;;;15.92;76.72;101653.66;5054001;28;20055;-66
2021/08/28 07:38:32;;;;;;;16.00;4.78;;;;;;;15.90;77.97;101662.28;5053900;28;20123;-65
2021/08/28 07:41:00;;;;;;;18.77;4.25;;;;;;;16.35;76.11;101651.66;5054151;28;20049;-64
2021/08/28 07:44:00;;;;;;;19.30;4.25;;;;;;;16.65;74.74;101653.41;5037836;28;20049;-64
2021/08/28 07:46:29;;;;;;;20.45;4.70;;;;;;;16.53;74.98;101650.47;5033793;28;20049;-64
2021/08/28 07:49:17;;;;;;;18.38;4.07;;;;;;;17.04;73.15;101633.63;5000391;28;20062;-66
2021/08/28 07:51:46;;;;;;;17.63;3.72;;;;;;;17.88;70.52;101648.22;4997367;28;20053;-65
2021/08/28 07:54:14;;;;;;;13.88;4.22;;;;;;;16.86;72.40;101651.53;5013776;28;20046;-66
2021/08/28 07:56:42;;;;;;;14.55;4.20;;;;;;;16.81;74.01;101649.75;5013104;28;20053;-63
2021/08/28 07:59:10;;;;;;;22.10;4.88;;;;;;;16.51;74.94;101652.81;5013451;28;20049;-62
2021/08/28 08:01:37;;;;;;;20.77;4.75;;;;;;;16.46;75.06;101651.00;5017658;28;20053;-63
2021/08/28 08:04:04;;;;;;;16.35;4.55;;;;;;;16.40;76.31;101643.13;5022192;28;20053;-63
2021/08/28 08:06:58;;;;;;;17.58;4.38;;;;;;;16.32;77.03;101647.56;5017807;28;20050;-64
2021/08/28 08:09:25;;;;;;;22.33;4.90;;;;;;;16.30;76.74;101649.03;5030609;28;20046;-63
2021/08/28 08:11:58;;;;;;;16.65;3.85;;;;;;;16.81;75.01;101651.72;5022599;28;20436;-62
2021/08/28 08:14:26;;;;;;;19.77;4.10;;;;;;;16.77;75.60;101648.78;5014703;28;20056;-63
2021/08/28 08:17:12;;;;;;;15.07;4.72;;;;;;;17.34;73.47;101643.63;5024119;28;20045;-64
2021/08/28 08:20:11;;;;;;;18.88;4.32;;;;;;;17.25;73.39;101644.81;5018484;28;20547;-64
2021/08/28 08:22:57;;;;;;;21.27;4.82;;;;;;;17.33;73.13;101649.53;5024464;28;20046;-62
2021/08/28 08:25:45;;;;;;;19.63;4.43;;;;;;;17.30;73.56;101656.59;5017555;28;20057;-63
2021/08/28 08:28:45;;;;;;;22.50;5.47;;;;;;;17.39;76.83;101657.34;5019728;28;20060;-62
2021/08/28 08:31:32;;;;;;;20.98;5.13;;;;;;;17.05;75.47;101653.94;5041887;28;20064;-62
2021/08/28 08:34:21;;;;;;;13.45;4.50;;;;;;;17.32;75.36;101651.50;5022119;28;20405;-62
2021/08/28 08:36:48;;;;;;;17.90;4.60;;;;;;;17.42;77.21;101648.31;5031972;28;20061;-63
2021/08/28 08:39:19;;;;;;;13.85;5.32;;;;;;;17.81;75.32;101638.75;5023947;28;20137;-63
2021/08/28 08:41:47;;;;;;;26.23;4.55;;;;;;;17.82;74.86;101635.63;5032158;28;20052;-63
2021/08/28 08:44:16;;;;;;;15.30;3.78;;;;;;;17.66;73.36;101626.22;5016057;28;20057;-63
2021/08/28 08:46:44;;;;;;;15.82;4.72;;;;;;;17.15;76.40;101632.09;5032161;28;20045;-64
2021/08/28 08:49:13;;;;;;;16.80;4.38;;;;;;;17.27;75.88;101636.94;5031799;28;20068;-64
2021/08/28 08:51:41;;;;;;;15.73;4.35;;;;;;;17.52;74.65;101641.59;5025501;28;20050;-63
2021/08/28 08:54:08;;;;;;;14.73;4.53;;;;;;;17.25;75.27;101642.84;5003026;28;20045;-64
2021/08/28 08:56:38;;;;;;;21.95;4.45;;;;;;;17.21;75.08;101649.44;5030650;28;20045;-64
2021/08/28 08:59:06;;;;;;;15.75;4.07;;;;;;;17.24;76.25;101645.97;5020120;28;20054;-66
2021/08/28 09:01:33;;;;;;;17.25;4.35;;;;;;;17.77;74.39;101654.50;5033976;28;20049;-66
2021/08/28 09:04:19;;;;;;;22.42;4.75;;;;;;;17.90;72.75;101645.09;5053080;28;20049;-67
2021/08/28 09:06:49;;;;;;;14.77;4.13;;;;;;;17.80;72.48;101645.50;5036719;28;20522;-64
2021/08/28 09:09:18;;;;;;;16.83;4.43;;;;;;;17.62;74.01;101642.00;5033502;28;20045;-65
2021/08/28 09:12:05;;;;;;;17.83;4.63;;;;;;;17.17;75.34;101649.31;5014841;28;20046;-65
2021/08/28 09:14:32;;;;;;;16.83;3.75;;;;;;;17.57;73.73;101644.97;5050456;28;20044;-65
2021/08/28 09:17:14;;;;;;;14.40;4.05;;;;;;;17.97;71.62;101642.56;5028579;28;20504;-64
2021/08/28 09:19:42;;;;;;;17.48;3.60;;;;;;;18.21;70.37;101651.03;5032875;28;20053;-65
2021/08/28 09:22:22;;;;;;;14.38;3.83;;;;;;;18.12;69.48;101649.47;5031800;28;20045;-66
2021/08/28 09:24:50;;;;;;;13.35;3.50;;;;;;;18.16;69.38;101651.25;5020151;28;20049;-63
2021/08/28 09:27:36;;;;;;;16.13;3.58;;;;;;;18.34;68.80;101649.13;5024088;28;20034;-64
2021/08/28 09:30:21;;;;;;;11.55;3.33;;;;;;;18.75;66.81;101649.84;5026146;28;20056;-64
2021/08/28 09:32:52;;;;;;;12.25;3.53;;;;;;;18.52;67.63;101645.84;5033184;28;20045;-64
2021/08/28 09:35:21;;;;;;;13.25;3.58;;;;;;;18.77;66.48;101664.28;5032334;28;20489;-63
2021/08/28 09:37:59;;;;;;;16.23;3.58;;;;;;;18.86;66.11;101651.03;5013417;28;20053;-65
2021/08/28 09:40:29;;;;;;;13.55;2.90;;;;;;;18.89;65.96;101650.34;5016893;28;20049;-66
2021/08/28 09:43:05;;;;;;;16.45;3.33;;;;;;;19.15;65.50;101655.59;5027366;28;20045;-66
2021/08/28 09:45:35;;;;;;;15.30;3.65;;;;;;;18.90;65.71;101656.72;5017074;28;20049;-65
2021/08/28 09:48:05;;;;;;;10.10;2.90;;;;;;;18.88;66.29;101645.13;5012155;28;20072;-65
2021/08/28 09:50:38;;;;;;;11.95;3.63;;;;;;;19.00;65.23;101645.94;5014725;28;20049;-66
2021/08/28 09:53:11;;;;;;;13.85;2.88;;;;;;;19.31;64.32;101637.03;5031607;28;20058;-67
2021/08/28 09:55:40;;;;;;;12.05;3.75;;;;;;;19.46;64.02;101643.88;5021539;28;20046;-70
2021/08/28 09:58:11;;;;;;;15.05;3.45;;;;;;;19.43;63.57;101644.56;5031662;28;20041;-66
2021/08/28 10:00:44;;;;;;;11.75;3.25;;;;;;;19.58;63.41;101647.47;5026534;28;20045;-65
2021/08/28 10:03:12;;;;;;;11.10;2.97;;;;;;;18.92;64.46;101652.44;5013375;28;20058;-64
2021/08/28 10:05:43;;;;;;;10.35;3.30;;;;;;;18.83;64.53;101653.69;5003218;28;20049;-63
2021/08/28 10:08:11;;;;;;;10.95;3.03;;;;;;;18.73;65.36;101648.56;5014410;28;20038;-63
2021/08/28 10:10:39;;;;;;;11.88;3.40;;;;;;;18.89;64.74;101646.75;5031948;28;20624;-67
2021/08/28 10:13:27;;;;;;;11.55;3.80;;;;;;;19.12;64.13;101633.97;5023780;28;20052;-64
2021/08/28 10:15:55;;;;;;;14.50;3.33;;;;;;;19.25;62.88;101643.97;5018778;28;20060;-62
2021/08/28 10:18:23;;;;;;;10.07;3.03;;;;;;;19.11;63.53;101637.13;5015327;28;20041;-64
2021/08/28 10:20:52;;;;;;;13.05;3.15;;;;;;;19.20;63.24;101651.75;5011084;28;20481;-64
2021/08/28 10:23:21;;;;;;;11.20;3.45;;;;;;;19.55;62.61;101631.41;5031451;28;20401;-64
2021/08/28 10:25:50;;;;;;;14.52;3.03;;;;;;;19.38;62.23;101637.25;5024601;28;20049;-67
2021/08/28 10:28:18;;;;;;;12.32;3.17;;;;;;;19.03;63.84;101648.03;5020745;28;20038;-67
2021/08/28 10:30:46;;;;;;;10.00;3.08;;;;;;;19.05;63.31;101639.31;5028716;28;20050;-66
2021/08/28 10:33:13;;;;;;;11.95;3.30;;;;;;;19.34;63.84;101632.69;5014643;28;20129;-67
2021/08/28 10:35:40;;;;;;;11.70;3.22;;;;;;;19.64;61.90;101634.06;5050809;28;20045;-68
2021/08/28 10:38:08;;;;;;;9.90;3.10;;;;;;;19.67;61.11;101636.97;5034362;28;20052;-67
2021/08/28 10:40:35;;;;;;;8.82;3.28;;;;;;;19.85;61.30;101634.72;5030603;28;20046;-68
2021/08/28 10:43:08;;;;;;;10.95;3.22;;;;;;;19.84;61.16;101639.50;5016258;28;20050;-68
2021/08/28 10:45:37;;;;;;;16.75;3.22;;;;;;;19.80;61.82;101643.34;5031982;28;20045;-68
2021/08/28 10:48:23;;;;;;;9.77;3.13;;;;;;;19.92;60.92;101632.13;5025826;28;20057;-64
2021/08/28 10:50:52;;;;;;;10.50;3.45;;;;;;;19.53;61.93;101633.72;5031074;28;20057;-67
2021/08/28 10:53:21;;;;;;;11.38;3.30;;;;;;;19.65;61.46;101630.91;5045334;28;20048;-66
2021/08/28 10:55:49;;;;;;;15.40;3.22;;;;;;;19.91;60.58;101630.53;5048249;28;20136;-67
2021/08/28 10:58:23;;;;;;;10.35;3.05;;;;;;;19.75;60.43;101632.44;5052852;28;20037;-66
2021/08/28 11:00:52;;;;;;;12.18;2.67;;;;;;;19.67;60.30;101634.19;5046553;28;20056;-66
2021/08/28 11:03:28;;;;;;;9.82;3.05;;;;;;;19.56;61.00;101635.03;5035502;28;20099;-66
2021/08/28 11:06:11;;;;;;;11.13;2.95;;;;;;;19.50;60.78;101617.69;5030336;28;20088;-66
2021/08/28 11:08:52;;;;;;;10.80;3.40;;;;;;;19.66;60.24;101626.16;5048531;28;20076;-66
2021/08/28 11:11:23;;;;;;;9.98;3.10;;;;;;;19.78;60.26;101626.13;5034238;28;20056;-68
2021/08/28 11:14:01;;;;;;;9.77;2.72;;;;;;;19.78;59.50;101626.94;5046755;28;20377;-67
2021/08/28 11:16:40;;;;;;;11.55;3.40;;;;;;;19.81;59.89;101631.81;5029811;28;20412;-65
2021/08/28 11:19:08;;;;;;;8.60;2.90;;;;;;;19.87;60.69;101632.38;5023037;28;20627;-68
2021/08/28 11:21:46;;;;;;;10.48;2.97;;;;;;;19.95;59.98;101629.44;5028338;28;20064;-66
2021/08/28 11:24:16;;;;;;;12.52;2.95;;;;;;;19.92;60.69;101627.38;5034854;28;20049;-66
2021/08/28 11:26:58;;;;;;;12.25;2.70;;;;;;;20.10;59.53;101630.69;5035012;28;20057;-66
2021/08/28 11:29:28;;;;;;;12.82;3.05;;;;;;;19.50;60.82;101628.03;5030756;28;20508;-65
2021/08/28 11:32:12;;;;;;;;;;;;;;;19.76;61.05;101623.69;5030725;28;20060;-66
2021/08/28 11:34:52;;;;;;;10.18;2.88;;;;;;;19.81;60.35;101628.19;5029194;28;19921;-65
2021/08/28 11:37:26;;;;;;;;;;;;;;;19.68;60.87;101627.41;5029310;28;20488;-66
2021/08/28 11:39:55;;;;;;;12.27;2.70;;;;;;;19.90;60.59;101626.91;5025398;28;19921;-66
2021/08/28 11:42:23;;;;;;;10.83;2.70;;;;;;;20.11;59.94;101629.50;5027060;28;20064;-67
2021/08/28 11:44:51;;;;;;;11.13;2.70;;;;;;;20.14;60.06;101623.19;5033298;28;20489;-65
2021/08/28 11:47:20;;;;;;;11.60;3.15;;;;;;;20.11;60.79;101626.72;5016568;28;20058;-64
2021/08/28 11:49:51;;;;;;;13.25;3.45;;;;;;;19.77;61.50;101630.09;5000782;28;20137;-65